createdAt,value
2022-12-11T00:00:15.703Z,13.73
2022-12-11T00:02:42.443Z,14.03
2022-12-11T00:05:09.983Z,13.57
2022-12-11T00:07:37.534Z,12.67
2022-12-11T00:10:04.976Z,13.90
2022-12-11T00:12:32.428Z,14.00
2022-12-11T00:14:59.597Z,13.53
2022-12-11T00:17:26.449Z,12.13
2022-12-11T00:19:53.054Z,13.33
2022-12-11T00:22:19.973Z,13.00
2022-12-11T00:24:47.177Z,12.60
2022-12-11T00:27:13.998Z,12.90
2022-12-11T00:29:40.678Z,12.70
2022-12-11T00:32:07.364Z,12.70
2022-12-11T00:34:34.023Z,12.73
2022-12-11T00:37:02.369Z,12.30
2022-12-11T00:39:29.290Z,13.33
2022-12-11T00:41:56.001Z,15.10
2022-12-11T00:44:23.027Z,12.83
2022-12-11T00:46:49.998Z,13.00
2022-12-11T00:49:16.735Z,11.80
2022-12-11T00:51:43.357Z,15.03
2022-12-11T00:54:10.080Z,12.50
2022-12-11T00:56:36.703Z,12.70
2022-12-11T00:59:03.449Z,13.00
2022-12-11T01:01:30.099Z,12.83
2022-12-11T01:03:56.854Z,11.87
2022-12-11T01:06:26.353Z,12.30
2022-12-11T01:09:13.888Z,11.97
2022-12-11T01:11:42.653Z,12.57
2022-12-11T01:14:10.793Z,11.80
2022-12-11T01:16:37.561Z,12.27
2022-12-11T01:19:04.646Z,10.90
2022-12-11T01:21:31.323Z,13.87
2022-12-11T01:23:57.995Z,12.53
2022-12-11T01:26:24.674Z,12.17
2022-12-11T01:28:51.984Z,13.03
2022-12-11T01:31:20.078Z,13.40
2022-12-11T01:33:46.759Z,12.93
2022-12-11T01:36:21.887Z,12.93
2022-12-11T01:38:49.381Z,12.17
2022-12-11T01:41:17.895Z,13.97
2022-12-11T01:44:27.502Z,10.57
2022-12-11T01:46:54.520Z,12.03
2022-12-11T01:49:27.231Z,12.87
2022-12-11T01:52:01.849Z,11.83
2022-12-11T01:54:29.941Z,12.73
2022-12-11T01:57:01.355Z,12.40
2022-12-11T01:59:31.793Z,11.77
2022-12-11T02:02:08.691Z,13.00
2022-12-11T02:04:38.232Z,14.20
2022-12-11T02:07:05.223Z,12.97
2022-12-11T02:09:35.102Z,13.03
2022-12-11T02:12:07.554Z,12.73
2022-12-11T02:14:41.503Z,14.40
2022-12-11T02:17:46.776Z,13.60
2022-12-11T02:20:35.325Z,13.23
2022-12-11T02:23:23.888Z,13.37
2022-12-11T02:26:02.076Z,13.43
2022-12-11T02:28:42.581Z,14.43
2022-12-11T02:31:17.841Z,13.87
2022-12-11T02:33:59.543Z,12.77
2022-12-11T02:36:31.172Z,12.73
2022-12-11T02:39:01.518Z,13.07
2022-12-11T02:41:31.466Z,16.87
2022-12-11T02:43:59.775Z,13.23
2022-12-11T02:46:28.142Z,16.17
2022-12-11T02:48:58.279Z,12.93
2022-12-11T02:51:29.724Z,13.57
2022-12-11T02:53:59.102Z,13.07
2022-12-11T02:56:34.022Z,13.47
2022-12-11T02:59:08.872Z,13.13
2022-12-11T03:01:36.106Z,13.27
2022-12-11T03:04:03.377Z,13.97
2022-12-11T03:06:38.945Z,11.90
2022-12-11T03:09:07.030Z,15.13
2022-12-11T03:11:33.720Z,13.77
2022-12-11T03:14:02.836Z,13.23
2022-12-11T03:16:38.984Z,13.70
2022-12-11T03:19:15.496Z,13.77
2022-12-11T03:22:08.254Z,13.83
2022-12-11T03:24:45.906Z,14.67
2022-12-11T03:27:22.706Z,15.07
2022-12-11T03:30:00.174Z,15.73
2022-12-11T03:32:36.051Z,15.20
2022-12-11T03:35:17.486Z,13.90
2022-12-11T03:37:48.274Z,13.87
2022-12-11T03:40:17.463Z,11.87
2022-12-11T03:42:47.257Z,12.03
2022-12-11T03:45:16.445Z,13.57
2022-12-11T03:47:44.484Z,13.80
2022-12-11T03:50:14.274Z,13.80
2022-12-11T03:52:46.037Z,14.07
2022-12-11T03:55:16.303Z,13.50
2022-12-11T03:57:43.561Z,12.50
2022-12-11T04:00:14.091Z,12.30
2022-12-11T04:02:42.336Z,12.53
2022-12-11T04:05:10.428Z,13.63
2022-12-11T04:07:37.517Z,13.93
2022-12-11T04:10:05.320Z,14.60
2022-12-11T04:12:32.120Z,14.47
2022-12-11T04:15:01.791Z,12.20
2022-12-11T04:17:52.533Z,11.97
2022-12-11T04:20:38.288Z,12.33
2022-12-11T04:23:31.765Z,13.23
2022-12-11T04:26:09.206Z,13.83
2022-12-11T04:28:36.524Z,14.13
2022-12-11T04:31:03.836Z,15.40
2022-12-11T04:33:31.421Z,15.10
2022-12-11T04:35:59.504Z,16.57
2022-12-11T04:38:26.852Z,16.27
2022-12-11T04:41:01.193Z,15.03
2022-12-11T04:43:28.115Z,15.87
2022-12-11T04:46:08.212Z,15.33
2022-12-11T04:48:35.596Z,16.00
2022-12-11T04:51:02.838Z,15.10
2022-12-11T04:53:30.124Z,15.57
2022-12-11T04:55:56.968Z,14.40
2022-12-11T04:58:25.233Z,15.23
2022-12-11T05:00:52.333Z,15.80
2022-12-11T05:03:20.512Z,14.83
2022-12-11T05:05:49.248Z,14.03
2022-12-11T05:08:16.501Z,14.90
2022-12-11T05:10:48.582Z,14.37
2022-12-11T05:13:17.235Z,12.63
2022-12-11T05:15:43.932Z,12.27
2022-12-11T05:18:10.568Z,11.43
2022-12-11T05:20:37.217Z,12.97
2022-12-11T05:23:04.354Z,11.67
2022-12-11T05:25:31.387Z,11.60
2022-12-11T05:27:58.256Z,10.53
2022-12-11T05:30:24.979Z,10.27
2022-12-11T05:32:51.857Z,12.00
2022-12-11T05:35:18.863Z,11.77
2022-12-11T05:37:45.740Z,11.53
2022-12-11T05:40:12.725Z,12.63
2022-12-11T05:42:40.688Z,11.80
2022-12-11T05:45:07.702Z,11.90
2022-12-11T05:47:34.471Z,13.20
2022-12-11T05:50:01.378Z,12.23
2022-12-11T05:52:28.169Z,12.07
2022-12-11T05:54:54.762Z,12.30
2022-12-11T05:57:21.450Z,12.57
2022-12-11T05:59:48.478Z,13.07
2022-12-11T06:02:15.336Z,12.50
2022-12-11T06:04:42.121Z,12.73
2022-12-11T06:07:08.744Z,13.07
2022-12-11T06:09:35.493Z,12.17
2022-12-11T06:12:02.120Z,12.17
2022-12-11T06:14:29.112Z,12.17
2022-12-11T06:16:58.515Z,11.80
2022-12-11T06:19:32.019Z,11.73
2022-12-11T06:22:04.689Z,11.50
2022-12-11T06:24:31.394Z,12.00
2022-12-11T06:26:58.286Z,11.30
2022-12-11T06:29:24.910Z,11.20
2022-12-11T06:31:52.083Z,11.87
2022-12-11T06:34:18.888Z,11.87
2022-12-11T06:36:45.814Z,11.57
2022-12-11T06:39:12.450Z,12.30
2022-12-11T06:41:39.171Z,10.77
2022-12-11T06:44:06.161Z,11.87
2022-12-11T06:46:33.252Z,10.70
2022-12-11T06:49:00.459Z,11.00
2022-12-11T06:51:27.397Z,12.77
2022-12-11T06:53:56.941Z,12.00
2022-12-11T06:56:24.728Z,11.20
2022-12-11T06:58:52.233Z,10.40
2022-12-11T07:01:20.421Z,11.77
2022-12-11T07:03:47.132Z,10.63
2022-12-11T07:06:14.892Z,11.33
2022-12-11T07:08:45.055Z,11.50
2022-12-11T07:11:14.117Z,10.83
2022-12-11T07:13:42.335Z,10.17
2022-12-11T07:16:11.312Z,10.63
2022-12-11T07:18:40.053Z,10.53
2022-12-11T07:21:08.460Z,10.57
2022-12-11T07:23:35.824Z,10.63
2022-12-11T07:26:07.460Z,10.93
2022-12-11T07:28:34.922Z,10.97
2022-12-11T07:31:16.747Z,11.37
2022-12-11T07:33:43.794Z,10.73
2022-12-11T07:36:13.253Z,11.37
2022-12-11T07:38:40.594Z,11.80
2022-12-11T07:41:13.773Z,12.13
2022-12-11T07:43:41.766Z,12.07
2022-12-11T07:46:15.858Z,12.53
2022-12-11T07:48:44.305Z,12.07
2022-12-11T07:51:16.940Z,12.30
2022-12-11T07:53:45.622Z,11.57
2022-12-11T07:56:12.904Z,11.10
2022-12-11T07:58:39.675Z,10.90
2022-12-11T08:01:23.652Z,11.97
2022-12-11T08:03:50.823Z,12.73
2022-12-11T08:06:20.204Z,13.17
2022-12-11T08:08:47.605Z,11.60
2022-12-11T08:11:15.658Z,12.67
2022-12-11T08:13:43.234Z,11.93
2022-12-11T08:16:14.816Z,13.50
2022-12-11T08:18:43.012Z,13.33
2022-12-11T08:21:12.482Z,13.83
2022-12-11T08:23:42.036Z,12.17
2022-12-11T08:26:12.508Z,12.53
2022-12-11T08:28:39.241Z,12.37
2022-12-11T08:31:09.328Z,12.87
2022-12-11T08:33:38.639Z,14.20
2022-12-11T08:36:07.420Z,14.17
2022-12-11T08:38:34.556Z,12.90
2022-12-11T08:41:21.259Z,13.27
2022-12-11T08:43:49.803Z,14.77
2022-12-11T08:46:16.524Z,12.27
2022-12-11T08:48:43.866Z,14.33
2022-12-11T08:51:17.336Z,14.03
2022-12-11T08:53:44.879Z,14.47
2022-12-11T08:56:15.619Z,14.10
2022-12-11T08:58:43.212Z,12.33
2022-12-11T09:01:15.499Z,13.13
2022-12-11T09:03:42.559Z,13.90
2022-12-11T09:06:11.840Z,13.33
2022-12-11T09:08:40.221Z,14.47
2022-12-11T09:11:10.799Z,14.10
2022-12-11T09:13:38.995Z,14.83
2022-12-11T09:16:11.540Z,13.13
2022-12-11T09:18:39.619Z,13.80
2022-12-11T09:21:09.988Z,13.13
2022-12-11T09:23:37.236Z,15.13
2022-12-11T09:26:06.077Z,13.73
2022-12-11T09:28:33.295Z,13.40
2022-12-11T09:31:00.770Z,13.90
2022-12-11T09:33:27.641Z,14.40
2022-12-11T09:35:59.393Z,14.77
2022-12-11T09:38:26.532Z,14.07
2022-12-11T09:40:53.462Z,13.60
2022-12-11T09:43:42.641Z,13.57
2022-12-11T09:46:14.771Z,14.50
2022-12-11T09:48:45.649Z,13.07
2022-12-11T09:51:20.865Z,13.93
2022-12-11T09:53:50.453Z,14.47
2022-12-11T09:56:27.602Z,13.40
2022-12-11T09:59:23.698Z,14.40
2022-12-11T10:02:17.104Z,12.97
2022-12-11T10:04:43.665Z,13.47
2022-12-11T10:07:20.911Z,14.13
2022-12-11T10:10:02.619Z,13.17
2022-12-11T10:12:39.946Z,13.23
2022-12-11T10:15:19.847Z,15.97
2022-12-11T10:17:47.161Z,15.57
2022-12-11T10:20:36.487Z,14.63
2022-12-11T10:23:07.082Z,15.20
2022-12-11T10:26:07.329Z,14.87
2022-12-11T10:28:34.982Z,15.70
2022-12-11T10:31:37.084Z,16.53
2022-12-11T10:34:15.715Z,16.47
2022-12-11T10:36:43.481Z,16.63
2022-12-11T10:39:19.134Z,16.23
2022-12-11T10:41:51.000Z,16.17
2022-12-11T10:44:30.163Z,16.13
2022-12-11T10:47:06.380Z,15.83
2022-12-11T10:49:36.452Z,15.57
2022-12-11T10:52:11.840Z,18.33
2022-12-11T10:54:43.768Z,16.07
2022-12-11T10:57:14.231Z,15.67
2022-12-11T10:59:49.551Z,16.37
2022-12-11T11:02:36.739Z,17.83
2022-12-11T11:05:27.354Z,16.03
2022-12-11T11:08:23.841Z,13.70
2022-12-11T11:10:59.365Z,15.03
2022-12-11T11:13:28.766Z,14.40
2022-12-11T11:16:01.537Z,15.53
2022-12-11T11:18:30.249Z,14.97
2022-12-11T11:20:57.365Z,15.53
2022-12-11T11:23:25.284Z,14.57
2022-12-11T11:25:57.745Z,16.00
2022-12-11T11:28:28.494Z,14.00
2022-12-11T11:31:05.419Z,13.90
2022-12-11T11:33:35.467Z,14.43
2022-12-11T11:36:05.753Z,14.43
2022-12-11T11:38:50.733Z,14.37
2022-12-11T11:41:24.098Z,15.30
2022-12-11T11:44:00.506Z,14.07
2022-12-11T11:46:38.903Z,15.20
2022-12-11T11:49:28.187Z,13.67
2022-12-11T11:52:03.680Z,15.20
2022-12-11T11:54:37.739Z,14.53
2022-12-11T11:57:17.930Z,14.90
2022-12-11T11:59:54.723Z,14.60
2022-12-11T12:02:21.624Z,14.77
2022-12-11T12:04:51.184Z,15.03
2022-12-11T12:07:35.676Z,15.83
2022-12-11T12:10:21.161Z,15.20
2022-12-11T12:12:57.420Z,22.90
2022-12-11T12:15:40.925Z,20.90
2022-12-11T12:18:25.016Z,17.77
2022-12-11T12:21:02.530Z,20.27
2022-12-11T12:23:36.964Z,18.53
2022-12-11T12:26:22.200Z,17.53
2022-12-11T12:29:01.888Z,29.07
2022-12-11T12:31:46.979Z,24.47
2022-12-11T12:34:45.411Z,18.63
2022-12-11T12:37:45.648Z,17.40
2022-12-11T12:40:31.058Z,14.43
2022-12-11T12:43:43.119Z,15.13
2022-12-11T12:46:34.585Z,15.87
2022-12-11T12:49:02.863Z,14.60
2022-12-11T12:51:30.371Z,15.07
2022-12-11T12:54:06.673Z,16.07
2022-12-11T12:56:40.552Z,15.87
2022-12-11T12:59:21.173Z,14.33
2022-12-11T13:01:52.324Z,14.97
2022-12-11T13:04:54.867Z,14.70
2022-12-11T13:07:30.060Z,15.63
2022-12-11T13:10:00.806Z,14.87
2022-12-11T13:12:33.971Z,15.13
2022-12-11T13:15:00.969Z,15.57
2022-12-11T13:17:38.736Z,15.60
2022-12-11T13:20:20.860Z,15.17
2022-12-11T13:23:07.494Z,14.70
2022-12-11T13:25:51.319Z,16.03
2022-12-11T13:28:46.728Z,15.33
2022-12-11T13:31:28.012Z,14.83
2022-12-11T13:33:57.024Z,13.93
2022-12-11T13:36:29.861Z,14.30
2022-12-11T13:39:07.930Z,14.87
2022-12-11T13:41:37.540Z,14.83
2022-12-11T13:44:06.997Z,14.43
2022-12-11T13:46:37.787Z,14.93
2022-12-11T13:49:06.912Z,13.97
2022-12-11T13:51:37.862Z,14.63
2022-12-11T13:54:17.286Z,14.97
2022-12-11T13:57:15.337Z,14.63
2022-12-11T13:59:46.930Z,16.63
2022-12-11T14:02:21.272Z,15.03
2022-12-11T14:04:51.593Z,15.57
2022-12-11T14:07:26.930Z,15.63
2022-12-11T14:10:00.278Z,15.67
2022-12-11T14:12:29.376Z,14.40
2022-12-11T14:14:57.943Z,14.53
2022-12-11T14:17:27.821Z,16.07
2022-12-11T14:19:57.490Z,17.07
2022-12-11T14:22:26.776Z,16.77
2022-12-11T14:25:00.311Z,15.93
2022-12-11T14:27:27.730Z,18.43
2022-12-11T14:29:54.984Z,16.37
2022-12-11T14:32:35.101Z,14.80
2022-12-11T14:35:05.859Z,16.43
2022-12-11T14:37:35.675Z,17.93
2022-12-11T14:40:08.123Z,19.33
2022-12-11T14:42:44.728Z,20.23
2022-12-11T14:45:48.435Z,19.43
2022-12-11T14:48:23.737Z,19.63
2022-12-11T14:50:57.620Z,21.10
2022-12-11T14:53:46.676Z,19.17
2022-12-11T14:56:22.522Z,20.03
2022-12-11T14:59:02.527Z,19.77
2022-12-11T15:01:37.618Z,19.73
2022-12-11T15:04:27.323Z,19.70
2022-12-11T15:06:53.960Z,18.77
2022-12-11T15:09:43.270Z,17.97
2022-12-11T15:12:13.875Z,17.50
2022-12-11T15:14:54.053Z,18.17
2022-12-11T15:17:21.984Z,17.20
2022-12-11T15:19:56.935Z,16.77
2022-12-11T15:22:28.248Z,17.90
2022-12-11T15:24:55.215Z,16.70
2022-12-11T15:27:36.522Z,17.23
2022-12-11T15:30:29.187Z,18.00
2022-12-11T15:33:19.275Z,17.30
2022-12-11T15:36:06.690Z,17.13
2022-12-11T15:38:34.878Z,16.93
2022-12-11T15:41:03.278Z,16.70
2022-12-11T15:43:34.513Z,19.00
2022-12-11T15:46:02.519Z,16.43
2022-12-11T15:48:29.492Z,16.20
2022-12-11T15:50:56.153Z,19.20
2022-12-11T15:53:22.899Z,17.17
2022-12-11T15:55:50.907Z,16.93
2022-12-11T15:58:20.883Z,17.43
2022-12-11T16:00:47.507Z,17.43
2022-12-11T16:03:16.555Z,17.83
2022-12-11T16:05:43.593Z,16.87
2022-12-11T16:08:15.201Z,16.83
2022-12-11T16:10:43.307Z,16.87
2022-12-11T16:13:11.374Z,16.23
2022-12-11T16:15:39.749Z,17.70
2022-12-11T16:18:09.299Z,16.07
2022-12-11T16:20:37.351Z,15.33
2022-12-11T16:23:04.109Z,15.80
2022-12-11T16:25:32.618Z,14.27
2022-12-11T16:28:01.301Z,15.73
2022-12-11T16:30:29.349Z,16.30
2022-12-11T16:32:56.288Z,15.50
2022-12-11T16:35:23.077Z,14.67
2022-12-11T16:37:54.012Z,16.17
2022-12-11T16:40:22.272Z,14.67
2022-12-11T16:42:51.941Z,15.77
2022-12-11T16:45:23.543Z,16.17
2022-12-11T16:47:51.202Z,16.63
2022-12-11T16:50:18.442Z,16.93
2022-12-11T16:52:45.702Z,16.47
2022-12-11T16:55:13.948Z,17.27
2022-12-11T16:57:41.461Z,16.00
2022-12-11T17:00:12.000Z,16.57
2022-12-11T17:02:38.956Z,15.60
2022-12-11T17:05:06.330Z,17.30
2022-12-11T17:07:33.523Z,16.37
2022-12-11T17:10:02.742Z,17.20
2022-12-11T17:12:31.335Z,16.60
2022-12-11T17:14:58.098Z,15.50
2022-12-11T17:17:25.391Z,15.87
2022-12-11T17:19:52.107Z,19.10
2022-12-11T17:22:18.755Z,16.10
2022-12-11T17:24:45.405Z,16.67
2022-12-11T17:27:12.038Z,16.27
2022-12-11T17:29:39.735Z,15.10
2022-12-11T17:32:06.990Z,15.20
2022-12-11T17:34:38.069Z,16.90
2022-12-11T17:37:06.276Z,15.67
2022-12-11T17:39:33.266Z,18.37
2022-12-11T17:42:00.453Z,15.70
2022-12-11T17:44:30.399Z,16.23
2022-12-11T17:47:04.672Z,16.63
2022-12-11T17:49:34.228Z,17.07
2022-12-11T17:52:00.878Z,16.30
2022-12-11T17:54:27.566Z,17.10
2022-12-11T17:56:54.228Z,15.37
2022-12-11T17:59:20.960Z,16.30
2022-12-11T18:01:47.623Z,16.23
2022-12-11T18:04:14.449Z,15.70
2022-12-11T18:06:41.189Z,17.17
2022-12-11T18:09:08.489Z,16.87
2022-12-11T18:11:35.296Z,15.57
2022-12-11T18:14:02.055Z,16.70
2022-12-11T18:16:32.445Z,14.90
2022-12-11T18:18:59.438Z,14.97
2022-12-11T18:21:32.727Z,15.83
2022-12-11T18:24:00.671Z,14.30
2022-12-11T18:26:27.707Z,14.60
2022-12-11T18:28:54.575Z,14.90
2022-12-11T18:31:22.845Z,15.27
2022-12-11T18:33:50.015Z,15.87
2022-12-11T18:36:17.859Z,14.70
2022-12-11T18:38:45.165Z,14.43
2022-12-11T18:41:13.320Z,15.57
2022-12-11T18:43:40.623Z,15.10
2022-12-11T18:46:14.240Z,14.47
2022-12-11T18:48:45.080Z,14.80
2022-12-11T18:51:14.949Z,14.43
2022-12-11T18:53:41.652Z,14.97
2022-12-11T18:56:11.964Z,15.43
2022-12-11T18:58:39.045Z,16.10
2022-12-11T19:01:33.915Z,15.27
2022-12-11T19:04:06.520Z,14.90
2022-12-11T19:06:35.930Z,14.40
2022-12-11T19:09:05.039Z,14.57
2022-12-11T19:11:33.116Z,15.27
2022-12-11T19:14:00.179Z,14.43
2022-12-11T19:16:35.448Z,14.17
2022-12-11T19:19:06.054Z,14.90
2022-12-11T19:21:35.218Z,14.03
2022-12-11T19:24:01.953Z,15.00
2022-12-11T19:26:28.622Z,14.87
2022-12-11T19:28:59.860Z,13.70
2022-12-11T19:31:37.147Z,13.20
2022-12-11T19:34:03.866Z,15.47
2022-12-11T19:36:31.492Z,13.93
2022-12-11T19:39:01.821Z,15.73
2022-12-11T19:41:30.117Z,14.33
2022-12-11T19:43:58.467Z,14.37
2022-12-11T19:46:26.999Z,22.30
2022-12-11T19:48:55.318Z,21.63
2022-12-11T19:51:25.366Z,16.17
2022-12-11T19:53:52.180Z,15.83
2022-12-11T19:56:20.098Z,14.50
2022-12-11T19:58:47.863Z,14.53
2022-12-11T20:01:22.339Z,15.07
2022-12-11T20:03:49.673Z,15.83
2022-12-11T20:06:16.306Z,13.87
2022-12-11T20:08:45.585Z,15.10
2022-12-11T20:11:18.023Z,23.20
2022-12-11T20:13:48.828Z,28.27
2022-12-11T20:16:17.371Z,16.23
2022-12-11T20:18:44.814Z,17.97
2022-12-11T20:21:14.438Z,15.97
2022-12-11T20:23:42.001Z,14.53
2022-12-11T20:26:12.079Z,16.37
2022-12-11T20:28:39.094Z,14.30
2022-12-11T20:31:07.867Z,15.97
2022-12-11T20:33:34.658Z,14.30
2022-12-11T20:36:02.096Z,14.37
2022-12-11T20:38:34.169Z,13.83
2022-12-11T20:41:01.145Z,14.80
2022-12-11T20:43:27.790Z,16.23
2022-12-11T20:45:54.503Z,19.43
2022-12-11T20:48:21.173Z,17.50
2022-12-11T20:50:48.104Z,16.17
2022-12-11T20:53:14.746Z,24.53
2022-12-11T20:55:43.104Z,14.13
2022-12-11T20:58:10.387Z,12.30
2022-12-11T21:00:37.826Z,17.43
2022-12-11T21:03:04.908Z,12.27
2022-12-11T21:05:31.765Z,12.90
2022-12-11T21:07:58.432Z,12.33
2022-12-11T21:10:25.156Z,12.73
2022-12-11T21:12:51.983Z,14.17
2022-12-11T21:15:18.667Z,14.13
2022-12-11T21:17:45.432Z,14.73
2022-12-11T21:20:12.080Z,14.10
2022-12-11T21:22:39.773Z,14.20
2022-12-11T21:25:06.745Z,15.97
2022-12-11T21:27:33.962Z,16.43
2022-12-11T21:30:00.723Z,16.50
2022-12-11T21:32:29.825Z,14.43
2022-12-11T21:34:58.516Z,16.37
2022-12-11T21:37:25.270Z,15.57
2022-12-11T21:39:55.987Z,17.40
2022-12-11T21:42:23.399Z,16.30
2022-12-11T21:45:37.655Z,16.80
2022-12-11T21:47:38.341Z,16.33
2022-12-11T21:50:05.576Z,15.07
2022-12-11T21:52:32.196Z,16.13
2022-12-11T21:54:58.815Z,15.43
2022-12-11T21:57:26.734Z,14.63
2022-12-11T21:59:53.504Z,15.00
2022-12-11T22:02:20.176Z,16.13
2022-12-11T22:04:47.447Z,15.67
2022-12-11T22:07:15.221Z,15.37
2022-12-11T22:09:42.719Z,14.40
2022-12-11T22:12:22.895Z,16.17
2022-12-11T22:14:49.825Z,15.17
2022-12-11T22:17:18.233Z,14.77
2022-12-11T22:19:47.079Z,14.93
2022-12-11T22:22:14.241Z,14.50
2022-12-11T22:24:41.335Z,16.07
2022-12-11T22:27:08.039Z,14.17
2022-12-11T22:29:35.536Z,15.63
2022-12-11T22:32:02.200Z,17.03
2022-12-11T22:34:28.915Z,17.30
2022-12-11T22:36:56.199Z,16.03
2022-12-11T22:39:24.412Z,16.40
2022-12-11T22:41:51.328Z,16.93
2022-12-11T22:44:20.062Z,15.67
2022-12-11T22:46:50.269Z,16.43
2022-12-11T22:49:19.107Z,17.57
2022-12-11T22:51:46.052Z,16.77
2022-12-11T22:54:12.689Z,15.77
2022-12-11T22:56:39.311Z,17.00
2022-12-11T22:59:07.505Z,16.33
2022-12-11T23:01:34.564Z,17.77
2022-12-11T23:04:01.525Z,16.07
2022-12-11T23:06:28.677Z,18.57
2022-12-11T23:09:00.284Z,19.13
2022-12-11T23:11:30.185Z,17.50
2022-12-11T23:13:57.415Z,18.37
2022-12-11T23:16:26.350Z,18.80
2022-12-11T23:18:54.216Z,18.13
2022-12-11T23:21:21.933Z,17.80
2022-12-11T23:23:49.595Z,17.07
2022-12-11T23:26:18.734Z,17.20
2022-12-11T23:28:46.415Z,19.07
2022-12-11T23:31:13.838Z,19.23
2022-12-11T23:33:40.691Z,17.53
2022-12-11T23:36:07.837Z,17.37
2022-12-11T23:38:35.375Z,18.33
2022-12-11T23:41:03.009Z,18.13
2022-12-11T23:43:29.776Z,18.07
2022-12-11T23:45:57.588Z,18.03
2022-12-11T23:48:24.517Z,19.10
2022-12-11T23:50:51.442Z,18.53
2022-12-11T23:53:18.623Z,16.33
2022-12-11T23:55:46.317Z,17.73
2022-12-11T23:58:13.017Z,18.77
